Time;durP1;ratioP1;P1;durP2;ratioP2;P2;SDS_P1;SDS_P2;PMS_P1;PMS_P2;Temp;Humidity;BMP_temperature;BMP_pressure;BME280_temperature;BME280_humidity;BME280_pressure;Samples;Min_cycle;Max_cycle;Signal;HPM_P1;HPM_P2
2024/04/08 00:00:39;;;;;;;11.25;2.20;;;16.10;99.90;;;;;;5510121;25;20008;-62
2024/04/08 00:03:06;;;;;;;15.07;3.08;;;16.10;99.90;;;;;;5498392;25;20069;-62
2024/04/08 00:05:33;;;;;;;9.93;2.10;;;16.10;99.90;;;;;;5516169;25;19993;-62
2024/04/08 00:08:01;;;;;;;14.00;2.60;;;16.10;99.90;;;;;;5484132;26;20067;-62
2024/04/08 00:10:28;;;;;;;7.88;2.92;;;16.10;99.90;;;;;;5511522;25;20017;-62
2024/04/08 00:12:54;;;;;;;16.30;2.85;;;16.10;99.90;;;;;;5511935;25;20470;-62
2024/04/08 00:15:21;;;;;;;15.77;4.07;;;16.10;99.90;;;;;;5501442;25;19998;-62
2024/04/08 00:17:48;;;;;;;7.55;2.20;;;16.00;99.90;;;;;;5518143;25;20028;-62
2024/04/08 00:20:15;;;;;;;8.02;1.92;;;16.00;99.90;;;;;;5507877;25;20005;-62
2024/04/08 00:22:44;;;;;;;12.50;2.30;;;16.00;99.90;;;;;;5509123;25;20470;-62
2024/04/08 00:25:10;;;;;;;10.60;2.30;;;15.90;99.90;;;;;;5513911;25;20409;-62
2024/04/08 00:27:37;;;;;;;14.18;2.67;;;16.00;99.90;;;;;;5507726;25;20071;-62
2024/04/08 00:30:05;;;;;;;12.23;2.47;;;15.80;99.90;;;;;;5505067;25;20296;-62
2024/04/08 00:32:32;;;;;;;17.95;3.42;;;15.70;99.90;;;;;;5500632;25;19997;-62
2024/04/08 00:34:59;;;;;;;12.80;2.45;;;15.50;99.90;;;;;;5510141;25;20037;-62
2024/04/08 00:37:26;;;;;;;11.68;3.05;;;15.60;99.90;;;;;;5512349;25;20326;-62
2024/04/08 00:39:52;;;;;;;11.35;2.45;;;15.60;99.90;;;;;;5515993;25;20017;-62
2024/04/08 00:42:19;;;;;;;12.68;2.53;;;15.60;99.90;;;;;;5506333;25;19994;-62
2024/04/08 00:44:46;;;;;;;13.68;2.80;;;15.60;99.90;;;;;;5512243;25;20012;-62
2024/04/08 00:47:14;;;;;;;7.85;2.20;;;15.60;99.90;;;;;;5512455;25;20019;-62
2024/04/08 00:49:42;;;;;;;14.15;2.67;;;15.60;99.90;;;;;;5512465;25;20006;-62
2024/04/08 00:52:12;;;;;;;14.52;3.00;;;15.50;99.90;;;;;;5510855;25;20013;-62
2024/04/08 00:54:40;;;;;;;16.52;2.70;;;15.50;99.90;;;;;;5509043;25;20458;-62
2024/04/08 00:57:13;;;;;;;13.68;2.80;;;15.50;99.90;;;;;;5517107;25;20009;-62
2024/04/08 00:59:40;;;;;;;15.80;3.42;;;15.50;99.90;;;;;;5511929;26;19998;-62
2024/04/08 01:02:08;;;;;;;11.98;2.85;;;15.40;99.90;;;;;;5511095;25;20013;-62
2024/04/08 01:04:35;;;;;;;11.88;2.50;;;15.40;99.90;;;;;;5510939;25;20473;-62
2024/04/08 01:07:02;;;;;;;10.90;2.33;;;15.40;99.90;;;;;;5511305;25;20009;-62
2024/04/08 01:09:29;;;;;;;10.55;2.65;;;15.40;99.90;;;;;;5511845;25;20001;-61
2024/04/08 01:11:57;;;;;;;17.35;3.72;;;15.30;99.90;;;;;;5510506;25;20466;-62
2024/04/08 01:14:24;;;;;;;21.85;3.67;;;15.30;99.90;;;;;;5496412;25;19993;-62
2024/04/08 01:16:51;;;;;;;9.40;1.95;;;15.30;99.90;;;;;;5514995;25;20007;-62
2024/04/08 01:19:22;;;;;;;9.55;2.53;;;15.30;99.90;;;;;;5513384;25;20005;-62
2024/04/08 01:21:50;;;;;;;10.75;1.98;;;15.20;99.90;;;;;;5513962;25;20016;-62
2024/04/08 01:24:17;;;;;;;13.75;2.83;;;15.20;99.90;;;;;;5510833;25;20291;-62
2024/04/08 01:26:44;;;;;;;8.63;2.55;;;15.20;99.90;;;;;;5512622;25;20005;-62
2024/04/08 01:29:11;;;;;;;15.52;3.33;;;15.20;99.90;;;;;;5513474;25;20096;-60
2024/04/08 01:31:38;;;;;;;13.32;2.58;;;15.20;99.90;;;;;;5518932;25;20008;-62
2024/04/08 01:34:05;;;;;;;12.18;3.20;;;15.30;99.90;;;;;;5514531;25;20394;-62
2024/04/08 01:36:32;;;;;;;10.82;2.30;;;15.30;99.90;;;;;;5502950;25;20005;-62
2024/04/08 01:38:59;;;;;;;7.10;2.40;;;15.20;99.90;;;;;;5514251;25;20013;-62
2024/04/08 01:41:26;;;;;;;9.68;2.92;;;15.20;99.90;;;;;;5503219;25;20558;-62
2024/04/08 01:43:52;;;;;;;11.68;2.05;;;15.20;99.90;;;;;;5512103;25;20654;-62
2024/04/08 01:46:19;;;;;;;19.35;3.20;;;15.20;99.90;;;;;;5483586;26;19994;-62
2024/04/08 01:48:46;;;;;;;13.80;5.95;;;15.10;99.90;;;;;;5496740;25;20006;-62
2024/04/08 01:51:14;;;;;;;10.43;2.90;;;15.10;99.90;;;;;;5511546;25;20001;-62
2024/04/08 01:53:41;;;;;;;15.95;3.85;;;15.10;99.90;;;;;;5514846;25;20006;-62
2024/04/08 01:56:08;;;;;;;7.18;2.35;;;15.00;99.90;;;;;;5514709;25;20065;-62
2024/04/08 01:58:37;;;;;;;11.55;2.05;;;14.90;99.90;;;;;;5484705;25;20024;-62
2024/04/08 02:01:03;;;;;;;10.38;2.63;;;14.90;99.90;;;;;;5510854;25;19997;-62
2024/04/08 02:03:30;;;;;;;7.43;2.55;;;14.80;99.90;;;;;;5501287;25;20073;-62
2024/04/08 02:05:57;;;;;;;11.98;2.53;;;14.70;99.90;;;;;;5505576;25;20454;-62
2024/04/08 02:08:24;;;;;;;11.32;2.47;;;14.70;99.90;;;;;;5504796;25;20009;-62
2024/04/08 02:10:52;;;;;;;9.90;2.53;;;14.70;99.90;;;;;;5498770;25;20005;-62
2024/04/08 02:13:19;;;;;;;11.88;2.25;;;14.70;99.90;;;;;;5502738;25;19993;-62
2024/04/08 02:15:46;;;;;;;14.77;2.30;;;14.80;99.90;;;;;;5509967;25;20009;-62
2024/04/08 02:18:13;;;;;;;16.92;2.17;;;14.80;99.90;;;;;;5512233;25;20013;-62
2024/04/08 02:20:40;;;;;;;10.40;2.50;;;14.90;99.90;;;;;;5509879;25;20001;-63
2024/04/08 02:23:07;;;;;;;15.27;2.42;;;15.10;99.90;;;;;;5511846;25;20006;-62
2024/04/08 02:25:42;;;;;;;13.82;2.10;;;15.20;99.90;;;;;;5508561;25;20005;-62
2024/04/08 02:28:09;;;;;;;13.43;2.42;;;15.30;99.90;;;;;;5510582;25;20434;-62
2024/04/08 02:30:36;;;;;;;13.75;2.35;;;15.30;99.90;;;;;;5504934;25;20012;-62
2024/04/08 02:33:05;;;;;;;11.15;2.63;;;15.30;99.90;;;;;;5500411;25;20002;-62
2024/04/08 02:35:37;;;;;;;10.27;2.13;;;15.30;99.90;;;;;;5512915;25;20001;-62
2024/04/08 02:38:04;;;;;;;11.23;2.72;;;15.30;99.90;;;;;;5511897;25;20030;-62
2024/04/08 02:40:34;;;;;;;11.48;2.38;;;15.30;99.90;;;;;;5515308;25;20009;-62
2024/04/08 02:43:03;;;;;;;9.70;1.80;;;15.40;99.90;;;;;;5478962;26;20004;-62
2024/04/08 02:45:30;;;;;;;6.97;2.00;;;15.30;99.90;;;;;;5496378;25;20002;-62
2024/04/08 02:47:57;;;;;;;10.52;2.55;;;15.20;99.90;;;;;;5517407;25;19997;-62
2024/04/08 02:50:25;;;;;;;8.38;2.58;;;15.20;99.90;;;;;;5512942;25;20002;-62
2024/04/08 02:52:52;;;;;;;11.75;2.03;;;15.20;99.90;;;;;;5508800;25;19998;-62
2024/04/08 02:55:18;;;;;;;11.52;2.08;;;15.10;99.90;;;;;;5507005;25;20021;-62
2024/04/08 02:57:45;;;;;;;9.07;1.63;;;15.10;99.90;;;;;;5508550;25;19994;-62
2024/04/08 03:00:12;;;;;;;16.98;2.70;;;15.00;99.90;;;;;;5511438;25;20026;-62
2024/04/08 03:02:39;;;;;;;9.23;2.35;;;15.10;99.90;;;;;;5501884;25;20017;-62
2024/04/08 03:05:06;;;;;;;9.32;1.70;;;15.10;99.90;;;;;;5511621;25;20001;-62
2024/04/08 03:07:33;;;;;;;8.40;1.80;;;15.10;99.90;;;;;;5496419;25;19994;-62
2024/04/08 03:10:00;;;;;;;9.55;1.73;;;15.10;99.90;;;;;;5502730;25;20016;-62
2024/04/08 03:12:27;;;;;;;11.52;1.85;;;15.10;99.90;;;;;;5512953;25;20016;-62
2024/04/08 03:14:54;;;;;;;9.27;1.65;;;15.00;99.90;;;;;;5505228;25;19998;-62
2024/04/08 03:17:21;;;;;;;8.98;1.70;;;15.00;99.90;;;;;;5511541;25;20005;-62
2024/04/08 03:19:51;;;;;;;6.72;1.77;;;15.00;99.90;;;;;;5467447;26;20035;-62
2024/04/08 03:22:18;;;;;;;;;;;15.00;99.90;;;;;;5514469;25;20005;-62
2024/04/08 03:24:44;;;;;;;5.97;1.70;;;15.00;99.90;;;;;;5506410;25;20356;-62
2024/04/08 03:27:11;;;;;;;13.35;2.10;;;14.90;99.90;;;;;;5509946;25;19998;-62
2024/04/08 03:29:38;;;;;;;9.05;2.40;;;14.90;99.90;;;;;;5508431;25;20002;-62
2024/04/08 03:32:05;;;;;;;7.80;2.10;;;14.80;99.90;;;;;;5506044;25;20024;-62
2024/04/08 03:34:34;;;;;;;9.48;1.77;;;14.80;99.90;;;;;;5514421;25;20458;-62
2024/04/08 03:37:02;;;;;;;7.72;1.52;;;14.80;99.90;;;;;;5510970;25;20024;-62
2024/04/08 03:39:29;;;;;;;12.23;2.05;;;15.00;99.90;;;;;;5517411;25;19998;-62
2024/04/08 03:41:55;;;;;;;7.78;2.03;;;15.00;99.90;;;;;;5506642;25;19998;-62
2024/04/08 03:44:22;;;;;;;6.13;1.38;;;15.00;99.90;;;;;;5508202;25;20031;-62
2024/04/08 03:46:49;;;;;;;7.65;1.67;;;14.90;99.90;;;;;;5509563;25;20002;-62
2024/04/08 03:49:16;;;;;;;6.40;1.30;;;14.90;99.90;;;;;;5508954;25;20417;-62
2024/04/08 03:51:43;;;;;;;6.38;1.73;;;14.80;99.90;;;;;;5509160;25;20002;-62
2024/04/08 03:54:10;;;;;;;6.30;1.80;;;14.80;99.90;;;;;;5506036;25;20016;-62
2024/04/08 03:56:37;;;;;;;6.60;1.83;;;14.70;99.90;;;;;;5514428;25;20006;-62
2024/04/08 03:59:04;;;;;;;7.30;1.50;;;14.70;99.90;;;;;;5519398;25;20005;-62
2024/04/08 04:01:30;;;;;;;11.68;2.60;;;14.70;99.90;;;;;;5511417;25;20046;-62
2024/04/08 04:03:57;;;;;;;11.55;1.85;;;14.70;99.90;;;;;;5519879;25;20013;-62
2024/04/08 04:06:24;;;;;;;9.75;1.75;;;14.70;99.90;;;;;;5507482;25;20009;-62
2024/04/08 04:08:51;;;;;;;9.13;1.38;;;14.60;99.90;;;;;;5481543;26;20453;-62
2024/04/08 04:11:18;;;;;;;10.65;1.95;;;14.60;99.90;;;;;;5507562;25;20017;-62
2024/04/08 04:13:45;;;;;;;5.80;1.50;;;14.50;99.90;;;;;;5504858;25;20026;-62
2024/04/08 04:16:12;;;;;;;6.32;1.55;;;14.50;99.90;;;;;;5507634;25;20005;-62
2024/04/08 04:18:38;;;;;;;7.65;1.70;;;14.40;99.90;;;;;;5517877;25;20012;-62
2024/04/08 04:21:07;;;;;;;12.70;3.05;;;14.30;99.90;;;;;;5513847;25;20001;-62
2024/04/08 04:23:33;;;;;;;8.48;1.58;;;14.30;99.90;;;;;;5481801;25;20009;-62
2024/04/08 04:26:00;;;;;;;18.83;4.30;;;14.20;99.90;;;;;;5516399;25;20037;-62
2024/04/08 04:28:29;;;;;;;8.75;2.20;;;14.20;99.90;;;;;;5499525;25;20014;-62
2024/04/08 04:30:59;;;;;;;7.93;1.50;;;14.20;99.90;;;;;;5509066;25;19998;-62
2024/04/08 04:33:30;;;;;;;11.75;2.83;;;14.20;99.90;;;;;;5511133;25;20438;-62
2024/04/08 04:35:58;;;;;;;11.30;1.77;;;14.10;99.90;;;;;;5511363;25;20013;-62
2024/04/08 04:38:26;;;;;;;3.03;1.38;;;14.10;99.90;;;;;;5515576;25;20003;-62
2024/04/08 04:41:00;;;;;;;10.43;1.70;;;14.10;99.90;;;;;;5500867;25;20024;-62
2024/04/08 04:43:28;;;;;;;10.40;1.63;;;14.10;99.90;;;;;;5506433;25;20013;-62
2024/04/08 04:45:55;;;;;;;11.07;1.98;;;14.00;99.90;;;;;;5500492;25;20024;-62
2024/04/08 04:48:22;;;;;;;9.65;1.95;;;14.00;99.90;;;;;;5505311;26;19998;-62
2024/04/08 04:50:49;;;;;;;11.20;1.90;;;14.00;99.90;;;;;;5505021;25;20033;-62
2024/04/08 04:53:16;;;;;;;5.65;1.50;;;14.00;99.90;;;;;;5505938;25;20015;-62
2024/04/08 04:55:53;;;;;;;12.73;2.30;;;13.90;99.90;;;;;;5505183;25;19998;-62
2024/04/08 04:58:21;;;;;;;11.82;2.28;;;13.90;99.90;;;;;;5502165;25;19998;-62
2024/04/08 05:00:49;;;;;;;8.57;1.98;;;13.90;99.90;;;;;;5516971;25;20338;-61
2024/04/08 05:03:18;;;;;;;11.73;2.15;;;13.80;99.90;;;;;;5509188;25;20085;-62
2024/04/08 05:05:52;;;;;;;12.07;2.00;;;13.80;99.90;;;;;;5509617;25;20033;-62
2024/04/08 05:08:19;;;;;;;9.55;1.60;;;13.80;99.90;;;;;;5496603;25;20067;-62
2024/04/08 05:10:46;;;;;;;11.77;1.92;;;13.80;99.90;;;;;;5501713;25;20001;-62
2024/04/08 05:13:17;;;;;;;4.50;1.77;;;13.80;99.90;;;;;;5510043;26;20029;-62
2024/04/08 05:16:14;;;;;;;5.85;1.75;;;13.90;99.90;;;;;;5505059;25;20019;-62
2024/04/08 05:18:40;;;;;;;10.70;1.88;;;13.90;99.90;;;;;;5467441;25;20010;-62
2024/04/08 05:21:09;;;;;;;7.13;1.70;;;13.90;99.90;;;;;;5477067;25;20430;-62
2024/04/08 05:23:38;;;;;;;7.57;1.70;;;14.00;99.90;;;;;;5512576;25;19998;-62
2024/04/08 05:26:05;;;;;;;12.10;2.10;;;14.00;99.90;;;;;;5511106;25;19998;-62
2024/04/08 05:28:32;;;;;;;14.15;2.40;;;14.10;99.90;;;;;;5507550;25;20826;-62
2024/04/08 05:30:59;;;;;;;14.85;1.95;;;14.20;99.90;;;;;;5513975;25;20009;-62
2024/04/08 05:33:25;;;;;;;4.03;1.60;;;14.30;99.90;;;;;;5507785;25;20008;-63
2024/04/08 05:35:52;;;;;;;9.57;1.85;;;14.30;99.90;;;;;;5509499;25;19997;-62
2024/04/08 05:38:19;;;;;;;13.10;2.00;;;14.40;99.90;;;;;;5511496;25;19998;-62
2024/04/08 05:40:46;;;;;;;7.47;1.75;;;14.50;99.90;;;;;;5513047;25;20005;-62
2024/04/08 05:43:16;;;;;;;6.20;1.70;;;14.50;99.90;;;;;;5506800;25;19994;-62
2024/04/08 05:45:43;;;;;;;11.07;2.22;;;14.60;99.90;;;;;;5506317;25;19997;-62
2024/04/08 05:48:10;;;;;;;11.75;2.25;;;14.70;99.90;;;;;;5504035;25;20013;-62
2024/04/08 05:50:37;;;;;;;15.77;2.42;;;14.80;99.90;;;;;;5506714;25;20011;-62
2024/04/08 05:53:04;;;;;;;7.60;2.08;;;14.90;99.90;;;;;;5499801;25;20022;-62
2024/04/08 05:55:31;;;;;;;10.50;2.33;;;14.90;99.90;;;;;;5510210;25;20002;-62
2024/04/08 05:57:58;;;;;;;22.77;3.90;;;15.10;99.90;;;;;;5497979;25;19994;-62
2024/04/08 06:00:25;;;;;;;12.80;2.58;;;15.30;99.90;;;;;;5501858;25;20001;-62
2024/04/08 06:02:54;;;;;;;6.55;1.98;;;15.40;99.90;;;;;;5490493;25;20364;-62
2024/04/08 06:05:26;;;;;;;4.65;1.35;;;15.60;99.90;;;;;;5472579;26;20364;-62
2024/04/08 06:07:53;;;;;;;8.38;2.03;;;15.60;99.90;;;;;;5448888;20;20571;-60
2024/04/08 06:10:22;;;;;;;4.65;1.40;;;15.70;99.90;;;;;;5342848;26;20012;-61
2024/04/08 06:12:49;;;;;;;3.83;1.23;;;15.90;99.90;;;;;;5336091;26;20335;-61
2024/04/08 06:15:16;;;;;;;9.05;1.55;;;15.90;99.90;;;;;;5336656;26;20012;-60
2024/04/08 06:17:43;;;;;;;7.55;1.98;;;16.10;99.90;;;;;;5332410;26;20673;-60
2024/04/08 06:20:11;;;;;;;9.38;1.88;;;16.20;99.90;;;;;;5336994;26;20016;-58
2024/04/08 06:22:37;;;;;;;6.43;1.40;;;16.30;99.90;;;;;;5338483;26;20468;-61
2024/04/08 06:25:06;;;;;;;8.98;1.50;;;16.30;99.90;;;;;;5330995;26;20012;-61
2024/04/08 06:27:33;;;;;;;13.88;1.92;;;16.40;99.90;;;;;;5337356;26;20001;-57
2024/04/08 06:30:00;;;;;;;9.52;1.90;;;16.50;99.90;;;;;;5334961;26;20013;-60
2024/04/08 06:32:27;;;;;;;6.50;2.15;;;16.60;99.90;;;;;;5336416;26;20015;-60
2024/04/08 06:34:54;;;;;;;6.00;1.60;;;16.70;99.90;;;;;;5333753;26;20030;-61
2024/04/08 06:37:21;;;;;;;5.15;2.53;;;16.80;99.90;;;;;;5336074;26;20540;-62
2024/04/08 06:39:48;;;;;;;8.05;1.80;;;16.90;99.90;;;;;;5336658;26;20075;-61
2024/04/08 06:42:19;;;;;;;4.88;1.60;;;17.00;99.90;;;;;;5306419;26;20004;-61
2024/04/08 06:44:49;;;;;;;8.95;1.83;;;17.10;99.90;;;;;;5336226;26;20005;-58
2024/04/08 06:47:17;;;;;;;9.05;1.80;;;17.20;99.90;;;;;;5341092;26;20016;-61
2024/04/08 06:49:44;;;;;;;6.10;2.38;;;17.30;99.90;;;;;;5337174;26;20025;-61
2024/04/08 06:52:11;;;;;;;8.02;2.13;;;17.40;99.90;;;;;;5338098;26;19997;-62
2024/04/08 06:54:38;;;;;;;9.10;1.73;;;17.60;99.90;;;;;;5338181;26;20001;-61
2024/04/08 06:57:05;;;;;;;9.77;2.22;;;17.70;99.90;;;;;;5337936;26;20048;-62
2024/04/08 06:59:32;;;;;;;8.80;2.70;;;17.80;99.90;;;;;;5336887;26;20005;-61
2024/04/08 07:01:58;;;;;;;5.85;1.60;;;18.00;99.90;;;;;;5336622;26;19997;-62
2024/04/08 07:04:25;;;;;;;11.02;2.55;;;18.10;99.90;;;;;;5337637;26;20001;-62
2024/04/08 07:06:52;;;;;;;7.65;2.38;;;18.20;99.90;;;;;;5336407;26;19997;-61
2024/04/08 07:09:20;;;;;;;9.70;2.08;;;18.30;99.90;;;;;;5331771;26;20029;-62
2024/04/08 07:11:47;;;;;;;7.18;1.90;;;18.40;99.90;;;;;;5336845;26;20020;-61
2024/04/08 07:14:14;;;;;;;9.68;1.92;;;18.60;99.90;;;;;;5336793;26;20016;-61
2024/04/08 07:16:41;;;;;;;6.35;2.08;;;18.70;99.90;;;;;;5336666;26;20001;-61
2024/04/08 07:19:08;;;;;;;6.93;1.60;;;18.80;99.90;;;;;;5336483;26;20016;-63
2024/04/08 07:21:35;;;;;;;10.60;2.13;;;19.00;99.90;;;;;;5336863;26;20024;-61
2024/04/08 07:24:02;;;;;;;7.63;2.22;;;19.10;99.90;;;;;;5334479;26;20022;-61
2024/04/08 07:26:29;;;;;;;7.57;1.80;;;19.20;99.90;;;;;;5337966;26;19997;-62
2024/04/08 07:28:55;;;;;;;5.90;1.55;;;19.30;99.90;;;;;;5339273;26;20457;-62
2024/04/08 07:31:22;;;;;;;5.88;1.67;;;19.40;99.90;;;;;;5339317;26;20024;-61
2024/04/08 07:33:49;;;;;;;8.40;2.10;;;19.50;99.90;;;;;;5330332;26;20016;-62
2024/04/08 07:36:16;;;;;;;13.68;1.58;;;19.60;99.90;;;;;;5339588;26;20009;-63
2024/04/08 07:38:43;;;;;;;6.28;1.50;;;19.70;99.90;;;;;;5340254;26;19997;-61
2024/04/08 07:41:27;;;;;;;5.30;1.10;;;19.80;99.90;;;;;;5333107;26;20012;-63
2024/04/08 07:43:54;;;;;;;10.40;1.88;;;19.90;99.90;;;;;;5336220;26;20012;-61
2024/04/08 07:46:20;;;;;;;9.48;1.83;;;20.00;99.90;;;;;;5341329;26;20001;-62
2024/04/08 07:48:48;;;;;;;11.73;2.30;;;20.10;99.90;;;;;;5333422;26;20078;-62
2024/04/08 07:51:15;;;;;;;15.85;2.20;;;20.20;99.90;;;;;;5335180;26;20019;-62
2024/04/08 07:53:42;;;;;;;13.18;2.05;;;20.30;99.90;;;;;;5336611;26;20019;-62
2024/04/08 07:56:08;;;;;;;16.05;2.00;;;20.20;99.90;;;;;;5336005;26;20033;-62
2024/04/08 07:58:35;;;;;;;10.63;2.38;;;20.20;99.90;;;;;;5336221;26;20009;-63
2024/04/08 08:01:07;;;;;;;15.65;2.22;;;20.30;99.90;;;;;;5340668;26;20028;-63
2024/04/08 08:03:34;;;;;;;10.52;2.20;;;20.30;99.90;;;;;;5337154;26;20001;-61
2024/04/08 08:06:02;;;;;;;12.00;2.17;;;20.40;99.90;;;;;;5336013;26;20350;-63
2024/04/08 08:08:33;;;;;;;7.57;2.42;;;20.40;99.90;;;;;;5298658;27;20461;-62
2024/04/08 08:11:04;;;;;;;15.63;2.58;;;20.40;99.90;;;;;;5301824;26;20018;-62
2024/04/08 08:13:32;;;;;;;8.57;2.50;;;20.40;99.90;;;;;;5301784;26;20020;-63
2024/04/08 08:16:00;;;;;;;15.30;2.58;;;20.50;99.90;;;;;;5301815;26;20021;-62
2024/04/08 08:18:27;;;;;;;11.13;2.17;;;20.50;99.90;;;;;;5301619;26;20092;-62
2024/04/08 08:20:55;;;;;;;16.05;2.83;;;20.60;99.90;;;;;;5300560;26;20036;-62
2024/04/08 08:23:22;;;;;;;8.52;2.50;;;20.70;99.90;;;;;;5305069;26;20079;-60
2024/04/08 08:25:49;;;;;;;10.23;2.50;;;20.70;99.90;;;;;;5304444;26;20009;-64
2024/04/08 08:28:16;;;;;;;9.75;2.35;;;20.80;99.90;;;;;;5301802;26;20003;-62
2024/04/08 08:30:42;;;;;;;15.90;2.63;;;20.80;99.90;;;;;;5304447;26;20536;-63
2024/04/08 08:33:09;;;;;;;7.78;2.10;;;20.80;99.90;;;;;;5305069;27;20006;-63
2024/04/08 08:35:36;;;;;;;7.72;1.92;;;20.90;99.90;;;;;;5305575;26;20423;-62
2024/04/08 08:38:03;;;;;;;16.55;2.65;;;20.90;99.90;;;;;;5305197;26;20005;-61
2024/04/08 08:40:32;;;;;;;8.52;2.95;;;20.90;99.90;;;;;;5304629;26;20076;-63
2024/04/08 08:42:59;;;;;;;12.48;2.70;;;21.00;99.90;;;;;;5305624;26;20472;-63
2024/04/08 08:45:27;;;;;;;6.72;2.40;;;21.00;99.90;;;;;;5303827;26;20080;-62
2024/04/08 08:47:54;;;;;;;10.57;2.70;;;21.00;99.90;;;;;;5304373;26;20400;-62
2024/04/08 08:50:23;;;;;;;13.32;2.63;;;21.20;99.90;;;;;;5303976;26;20021;-62
2024/04/08 08:52:50;;;;;;;11.00;2.88;;;21.30;99.90;;;;;;5304399;26;19997;-62
2024/04/08 08:55:19;;;;;;;15.75;2.28;;;21.40;99.90;;;;;;5304700;26;20020;-62
2024/04/08 08:57:46;;;;;;;13.40;3.50;;;21.60;99.90;;;;;;5309151;26;20116;-62
2024/04/08 09:00:15;;;;;;;15.10;3.60;;;21.60;99.90;;;;;;5304541;26;20004;-61
2024/04/08 09:02:44;;;;;;;12.80;2.20;;;21.80;99.90;;;;;;5295381;26;20013;-61
2024/04/08 09:05:11;;;;;;;9.73;2.35;;;22.20;99.90;;;;;;5303723;26;20001;-62
2024/04/08 09:07:38;;;;;;;13.02;2.45;;;22.50;99.90;;;;;;5304301;26;20002;-61
2024/04/08 09:10:05;;;;;;;19.38;4.20;;;22.90;99.90;;;;;;5303798;26;20017;-62
2024/04/08 09:12:32;;;;;;;27.58;3.95;;;23.20;99.90;;;;;;5303791;26;20016;-62
2024/04/08 09:14:59;;;;;;;19.45;2.53;;;23.30;99.90;;;;;;5302354;26;20017;-61
2024/04/08 09:17:26;;;;;;;9.20;2.15;;;23.60;99.90;;;;;;5305815;26;20005;-63
2024/04/08 09:19:53;;;;;;;9.45;2.20;;;23.90;99.90;;;;;;5304188;26;20002;-63
2024/04/08 09:22:20;;;;;;;10.88;1.98;;;24.00;99.90;;;;;;5305096;26;20002;-63
2024/04/08 09:24:47;;;;;;;11.85;2.65;;;24.10;99.90;;;;;;5302269;26;20002;-63
2024/04/08 09:27:15;;;;;;;6.20;2.42;;;23.90;99.90;;;;;;5301843;26;20005;-62
2024/04/08 09:29:42;;;;;;;8.40;1.77;;;23.60;99.90;;;;;;5302955;26;20013;-63
2024/04/08 09:32:09;;;;;;;17.35;2.17;;;23.50;99.90;;;;;;5306164;26;20013;-63
2024/04/08 09:34:36;;;;;;;6.22;1.60;;;23.40;99.90;;;;;;5305356;26;20002;-62
2024/04/08 09:37:05;;;;;;;11.50;2.20;;;23.30;99.90;;;;;;5306648;26;20498;-62
2024/04/08 09:39:34;;;;;;;16.25;1.98;;;23.10;99.90;;;;;;5303462;26;20049;-63
2024/04/08 09:42:03;;;;;;;14.80;1.97;;;22.90;99.90;;;;;;5305941;26;20054;-64
2024/04/08 09:44:31;;;;;;;10.40;1.70;;;23.00;99.90;;;;;;5305273;26;20659;-60
2024/04/08 09:47:01;;;;;;;4.47;1.50;;;23.20;99.90;;;;;;5300440;26;20005;-61
2024/04/08 09:49:28;;;;;;;8.40;1.88;;;23.30;99.90;;;;;;5304117;26;20021;-61
2024/04/08 09:52:12;;;;;;;6.05;1.67;;;23.40;99.90;;;;;;5301491;26;20076;-60
2024/04/08 09:54:39;;;;;;;6.88;1.45;;;23.60;99.90;;;;;;5273347;27;20006;-61
2024/04/08 09:57:08;;;;;;;4.20;1.10;;;23.80;99.90;;;;;;5303235;26;20001;-60
2024/04/08 09:59:35;;;;;;;6.38;1.48;;;24.00;99.90;;;;;;5303339;26;20017;-61
2024/04/08 10:02:02;;;;;;;14.07;2.10;;;24.00;99.90;;;;;;5303358;26;20005;-61
2024/04/08 10:04:36;;;;;;;8.07;2.28;;;23.90;99.90;;;;;;5302164;26;20320;-62
2024/04/08 10:07:05;;;;;;;6.75;1.55;;;23.80;99.90;;;;;;5306787;26;20006;-61
2024/04/08 10:09:33;;;;;;;10.63;1.52;;;23.60;99.90;;;;;;5302245;26;20002;-60
2024/04/08 10:12:03;;;;;;;7.38;1.80;;;23.60;99.90;;;;;;5302625;26;20021;-61
2024/04/08 10:14:30;;;;;;;5.20;1.60;;;23.90;99.90;;;;;;5304981;26;20010;-61
2024/04/08 10:17:00;;;;;;;12.60;2.13;;;24.20;99.90;;;;;;5303727;26;20006;-61
2024/04/08 10:19:27;;;;;;;;;;;24.20;99.90;;;;;;5303394;26;19998;-62
2024/04/08 10:22:00;;;;;;;8.45;1.55;;;24.30;99.90;;;;;;5303838;26;19926;-62
2024/04/08 10:24:31;;;;;;;8.55;1.55;;;24.20;99.90;;;;;;5304246;26;20083;-61
2024/04/08 10:27:08;;;;;;;6.78;1.63;;;24.00;99.90;;;;;;5302831;26;20076;-62
2024/04/08 10:29:35;;;;;;;6.55;1.50;;;23.90;99.90;;;;;;5302894;26;20021;-61
2024/04/08 10:32:04;;;;;;;10.73;2.40;;;23.60;99.90;;;;;;5303762;26;20410;-62
2024/04/08 10:34:34;;;;;;;8.63;1.67;;;23.40;99.90;;;;;;5303102;26;20001;-62
2024/04/08 10:37:02;;;;;;;10.90;1.80;;;23.30;99.90;;;;;;5303050;26;20316;-62
2024/04/08 10:39:29;;;;;;;13.88;1.90;;;23.00;99.90;;;;;;5303499;26;20002;-62
2024/04/08 10:41:57;;;;;;;13.48;1.77;;;22.90;99.90;;;;;;5303197;26;20017;-62
2024/04/08 10:44:31;;;;;;;5.38;1.42;;;22.70;99.90;;;;;;5297693;26;20057;-62
2024/04/08 10:46:59;;;;;;;9.85;2.70;;;22.60;99.90;;;;;;5301402;26;20002;-63
2024/04/08 10:49:26;;;;;;;9.07;1.70;;;22.70;99.90;;;;;;5299379;26;20006;-62
2024/04/08 10:51:53;;;;;;;14.40;2.67;;;22.80;99.90;;;;;;5302849;26;20015;-62
2024/04/08 10:54:20;;;;;;;12.88;2.05;;;23.00;99.90;;;;;;5306353;26;20060;-63
2024/04/08 10:56:47;;;;;;;6.45;1.80;;;23.20;99.90;;;;;;5303128;26;20016;-63
2024/04/08 10:59:14;;;;;;;10.23;2.30;;;23.30;99.90;;;;;;5298269;26;20013;-62
2024/04/08 11:01:40;;;;;;;5.90;2.20;;;23.40;99.90;;;;;;5302554;26;20001;-63
2024/04/08 11:04:08;;;;;;;6.65;2.03;;;23.50;99.90;;;;;;5301023;26;20009;-63
2024/04/08 11:06:35;;;;;;;9.55;2.17;;;23.40;99.90;;;;;;5301851;26;20072;-60
2024/04/08 11:09:04;;;;;;;9.45;2.00;;;23.40;99.90;;;;;;5329398;26;19997;-61
2024/04/08 11:11:32;;;;;;;12.05;2.10;;;23.20;99.90;;;;;;5332777;26;20325;-60
2024/04/08 11:13:59;;;;;;;8.60;1.95;;;23.20;99.90;;;;;;5333002;26;20001;-62
2024/04/08 11:16:30;;;;;;;14.32;2.08;;;23.40;99.90;;;;;;5333570;26;20067;-62
2024/04/08 11:18:57;;;;;;;9.93;2.05;;;23.80;99.90;;;;;;5336910;26;20001;-62
2024/04/08 11:21:26;;;;;;;9.27;1.98;;;24.00;99.90;;;;;;5333148;26;20001;-60
2024/04/08 11:23:54;;;;;;;21.02;3.22;;;24.40;99.90;;;;;;5336282;26;20005;-60
2024/04/08 11:26:22;;;;;;;10.90;2.47;;;24.70;99.90;;;;;;5334871;26;20429;-60
2024/04/08 11:28:49;;;;;;;11.75;2.00;;;24.80;99.90;;;;;;5337590;26;20070;-60
2024/04/08 11:31:16;;;;;;;11.20;2.38;;;24.90;99.90;;;;;;5336494;26;20024;-61
2024/04/08 11:33:43;;;;;;;12.57;2.33;;;24.70;99.90;;;;;;5336857;26;20497;-61
2024/04/08 11:36:10;;;;;;;12.13;1.80;;;24.60;99.90;;;;;;5333853;26;20354;-61
2024/04/08 11:38:41;;;;;;;6.15;1.58;;;24.50;99.90;;;;;;5336681;26;20005;-61
2024/04/08 11:41:07;;;;;;;15.82;2.28;;;24.50;99.90;;;;;;5336328;26;20330;-62
2024/04/08 11:43:34;;;;;;;8.32;3.28;;;24.70;99.90;;;;;;5336603;26;20008;-61
2024/04/08 11:46:02;;;;;;;11.52;2.15;;;25.20;99.90;;;;;;5335285;26;20000;-60
2024/04/08 11:48:31;;;;;;;15.65;2.33;;;25.40;99.90;;;;;;5342723;26;20005;-61
2024/04/08 11:50:58;;;;;;;11.88;1.83;;;25.50;99.90;;;;;;5337824;26;20013;-60
2024/04/08 11:53:25;;;;;;;15.75;1.92;;;25.70;99.90;;;;;;5337100;26;20005;-61
2024/04/08 11:55:52;;;;;;;7.10;1.85;;;25.70;99.90;;;;;;5329446;26;20047;-62
2024/04/08 11:58:18;;;;;;;12.30;2.67;;;25.80;99.90;;;;;;5308028;26;20432;-62
2024/04/08 12:00:45;;;;;;;13.10;2.78;;;25.80;99.90;;;;;;5340049;26;20005;-61
2024/04/08 12:03:12;;;;;;;15.07;4.45;;;25.80;99.90;;;;;;5339562;26;20011;-62
2024/04/08 12:05:39;;;;;;;18.02;3.55;;;25.60;99.90;;;;;;5340049;26;20005;-61
2024/04/08 12:08:07;;;;;;;12.50;3.47;;;25.50;99.90;;;;;;5338175;26;20001;-62
2024/04/08 12:10:34;;;;;;;9.43;2.25;;;25.50;99.90;;;;;;5338157;26;20275;-63
2024/04/08 12:13:30;;;;;;;11.52;3.20;;;25.30;99.90;;;;;;5340025;26;19997;-63
2024/04/08 12:15:57;;;;;;;11.20;2.15;;;25.20;99.90;;;;;;5310761;26;20012;-62
2024/04/08 12:18:25;;;;;;;10.82;2.10;;;25.30;99.90;;;;;;5339124;26;20020;-58
2024/04/08 12:20:52;;;;;;;15.85;2.88;;;25.50;99.90;;;;;;5340903;26;20016;-62
2024/04/08 12:23:19;;;;;;;13.93;2.67;;;25.50;99.90;;;;;;5338098;26;20009;-62
2024/04/08 12:25:46;;;;;;;13.40;3.40;;;25.40;99.90;;;;;;5343421;26;20000;-60
2024/04/08 12:28:13;;;;;;;9.60;2.03;;;25.30;99.90;;;;;;5338597;26;20462;-62
2024/04/08 12:30:41;;;;;;;12.60;2.30;;;25.30;99.90;;;;;;5343049;26;20005;-62
2024/04/08 12:33:09;;;;;;;7.30;1.77;;;25.20;99.90;;;;;;5341999;26;20104;-60
2024/04/08 12:35:36;;;;;;;17.13;2.40;;;25.20;99.90;;;;;;5339378;26;20009;-59
2024/04/08 12:38:08;;;;;;;13.13;2.08;;;25.20;99.90;;;;;;5339014;26;20345;-61
2024/04/08 12:40:35;;;;;;;8.20;2.22;;;25.30;99.90;;;;;;5338489;26;20019;-61
2024/04/08 12:43:03;;;;;;;10.23;1.80;;;25.30;99.90;;;;;;5339190;26;20016;-61
2024/04/08 12:45:30;;;;;;;11.70;2.10;;;25.20;99.90;;;;;;5337283;26;20521;-62